Tug "trevor" — WCP6921 — position and weather

sailwx.info

Track history (hours):
 
Tides and Currents Weather Stations Pressure Air Temp Water Temp Dewpoint Dewpoint Depression Visibility Wind Speed Wind Dir Waves Ship Positions

Tug "trevor"

Owner: WEEKS MARINE, INC., CRANFORD, NJ. More information available from US FCC via Universal Licensing System and Coast Guard Vessel Documentation Center.

Last reported at 2016-Jul-24 08:16 UTC. Time now 2016-Jul-24 08:49 UTC.
Position N 40°28' W 073°58'.

Length 21 m; draft 3 m.

Type: Towing. MMSI: 366643140.

Date/timePositionNaut miles runAvg speedWind from/ knotsBaromVisibWave heightAir tempDewpointWater temp
2016-Jul-24 08:16N 40°28' W 073°58'0 0.0
2016-Jul-24 02:20N 40°28' W 073°58'0 0.0
2016-Jul-23 23:28N 40°28' W 073°58'0 0.0
2016-Jul-23 16:18N 40°29' W 073°59'0 0.0
2016-Jul-23 15:17N 40°29' W 073°58'0 0.1
2016-Jul-23 14:32N 40°29' W 073°59'0 0.0
2016-Jul-23 13:18N 40°29' W 073°59'0 0.1
2016-Jul-23 12:23N 40°29' W 073°59'0 0.1
2016-Jul-23 11:32N 40°29' W 073°59'0 0.0
2016-Jul-23 10:17N 40°29' W 073°59'0 0.1
2016-Jul-23 08:25N 40°29' W 073°58'0 0.0
2016-Jul-23 02:30N 40°29' W 073°59'0 0.0
2016-Jul-23 01:21N 40°29' W 073°59'0 0.0
2016-Jul-23 00:22N 40°29' W 073°59'0 0.0
2016-Jul-22 23:20N 40°29' W 073°59'0 0.0
2016-Jul-22 22:07N 40°29' W 073°59'0 0.0
2016-Jul-22 15:31N 40°29' W 073°59'0 0.1
2016-Jul-22 14:26N 40°29' W 073°59'0 0.1
2016-Jul-22 13:10N 40°29' W 073°59'0 0.1
2016-Jul-22 10:07N 40°29' W 073°58'0 0.1
2016-Jul-22 06:08N 40°29' W 073°59'0 0.0
2016-Jul-22 03:18N 40°29' W 073°59'0 0.0
2016-Jul-22 01:31N 40°29' W 073°59'0 0.0
2016-Jul-22 00:33N 40°29' W 073°59'0 0.0
2016-Jul-21 23:33N 40°29' W 073°59'0 0.1
2016-Jul-21 22:31N 40°29' W 073°59'0 0.1
2016-Jul-21 21:32N 40°29' W 073°59'0 0.0
2016-Jul-21 20:33N 40°29' W 073°59'0 0.1
2016-Jul-21 17:22N 40°29' W 073°58'0 0.1
2016-Jul-21 14:17N 40°29' W 073°59'0 0.0
2016-Jul-21 13:31N 40°29' W 073°59'0 0.0
2016-Jul-21 12:33N 40°29' W 073°59'0 0.3
2016-Jul-21 11:27N 40°29' W 073°58'0 0.4
2016-Jul-21 10:33N 40°29' W 073°59'0 0.0
2016-Jul-21 09:17N 40°29' W 073°59'0 0.0
2016-Jul-20 22:24N 40°29' W 073°59'0 0.1
2016-Jul-20 21:11N 40°29' W 073°59'0 0.0
2016-Jul-20 20:24N 40°29' W 073°59'0 0.1
2016-Jul-20 16:26N 40°29' W 073°58'0 0.1
2016-Jul-20 13:20N 40°29' W 073°59'0 0.0
2016-Jul-20 12:31N 40°29' W 073°59'1 0.2
2016-Jul-20 09:32N 40°28' W 073°58'0 0.0
2016-Jul-20 08:33N 40°28' W 073°58'0 0.0
2016-Jul-20 07:32N 40°28' W 073°58'0 0.0
2016-Jul-20 00:31N 40°29' W 073°58'0 0.0
2016-Jul-19 23:32N 40°29' W 073°58'0 0.1
2016-Jul-19 22:11N 40°29' W 073°59'0 0.1
2016-Jul-19 20:33N 40°29' W 073°58'0 0.0
2016-Jul-19 12:33N 40°29' W 073°59'0 0.0
2016-Jul-19 11:33N 40°29' W 073°59'0 0.0
2016-Jul-19 10:30N 40°29' W 073°59'0 0.0
2016-Jul-19 08:33N 40°29' W 073°59'0 0.0
2016-Jul-19 00:17N 40°29' W 073°59'0 0.0
2016-Jul-18 23:33N 40°29' W 073°59'0 0.0
2016-Jul-18 22:33N 40°29' W 073°59'0 0.0
2016-Jul-18 21:33N 40°29' W 073°59'2 1.0
2016-Jul-18 19:13N 40°27' W 074°01'3 0.4
2016-Jul-18 13:16N 40°29' W 073°58'0 0.6
2016-Jul-18 12:33N 40°29' W 073°59'0 0.0
2016-Jul-18 04:31N 40°29' W 073°59'0 0.0
2016-Jul-17 22:33N 40°29' W 073°59'0 0.0
2016-Jul-17 09:27N 40°29' W 073°59'0 0.0
2016-Jul-17 07:31N 40°29' W 073°59'0 0.1
2016-Jul-17 06:32N 40°29' W 073°59'0 0.0
2016-Jul-16 23:31N 40°29' W 073°59'0 0.0
2016-Jul-16 22:33N 40°29' W 073°59'2 0.4
2016-Jul-16 17:17N 40°29' W 074°02'0 0.0
2016-Jul-16 16:33N 40°29' W 074°02'2 0.1
2016-Jul-15 18:30N 40°29' W 073°59'0 0.0
2016-Jul-15 16:26N 40°29' W 073°59'0 0.0
2016-Jul-15 09:30N 40°29' W 073°59'0 0.0
2016-Jul-15 07:24N 40°29' W 073°59'0 0.0
2016-Jul-15 06:12N 40°29' W 073°59'0 0.0
2016-Jul-15 05:33N 40°29' W 073°59'0 0.0
2016-Jul-15 04:33N 40°29' W 073°59'0 0.0
2016-Jul-14 23:05N 40°29' W 073°59'0 0.0
2016-Jul-14 18:25N 40°29' W 073°59'0 0.0
2016-Jul-14 17:08N 40°29' W 073°59'0 0.0
2016-Jul-14 16:29N 40°29' W 073°59'0 0.0
2016-Jul-14 15:33N 40°29' W 073°59'  
Track history (hours):
 
Tides and Currents Weather Stations Pressure Air Temp Water Temp Dewpoint Dewpoint Depression Visibility Wind Speed Wind Dir Waves Ship Positions

Tug "trevor"

Owner: WEEKS MARINE, INC., CRANFORD, NJ. More information available from US FCC via Universal Licensing System and Coast Guard Vessel Documentation Center.

Last reported at 2016-Jul-24 08:16 UTC. Time now 2016-Jul-24 08:49 UTC.
Position N 40°28' W 073°58'.

Length 21 m; draft 3 m.

Type: Towing. MMSI: 366643140.

Date/timePositionNaut miles runAvg speedWind from/ knotsBaromVisibWave heightAir tempDewpointWater temp
2016-Jul-24 08:16N 40°28' W 073°58'0 0.0
2016-Jul-24 02:20N 40°28' W 073°58'0 0.0
2016-Jul-23 23:28N 40°28' W 073°58'0 0.0
2016-Jul-23 16:18N 40°29' W 073°59'0 0.0
2016-Jul-23 15:17N 40°29' W 073°58'0 0.1
2016-Jul-23 14:32N 40°29' W 073°59'0 0.0
2016-Jul-23 13:18N 40°29' W 073°59'0 0.1
2016-Jul-23 12:23N 40°29' W 073°59'0 0.1
2016-Jul-23 11:32N 40°29' W 073°59'0 0.0
2016-Jul-23 10:17N 40°29' W 073°59'0 0.1
2016-Jul-23 08:25N 40°29' W 073°58'0 0.0
2016-Jul-23 02:30N 40°29' W 073°59'0 0.0
2016-Jul-23 01:21N 40°29' W 073°59'0 0.0
2016-Jul-23 00:22N 40°29' W 073°59'0 0.0
2016-Jul-22 23:20N 40°29' W 073°59'0 0.0
2016-Jul-22 22:07N 40°29' W 073°59'0 0.0
2016-Jul-22 15:31N 40°29' W 073°59'0 0.1
2016-Jul-22 14:26N 40°29' W 073°59'0 0.1
2016-Jul-22 13:10N 40°29' W 073°59'0 0.1
2016-Jul-22 10:07N 40°29' W 073°58'0 0.1
2016-Jul-22 06:08N 40°29' W 073°59'0 0.0
2016-Jul-22 03:18N 40°29' W 073°59'0 0.0
2016-Jul-22 01:31N 40°29' W 073°59'0 0.0
2016-Jul-22 00:33N 40°29' W 073°59'0 0.0
2016-Jul-21 23:33N 40°29' W 073°59'0 0.1
2016-Jul-21 22:31N 40°29' W 073°59'0 0.1
2016-Jul-21 21:32N 40°29' W 073°59'0 0.0
2016-Jul-21 20:33N 40°29' W 073°59'0 0.1
2016-Jul-21 17:22N 40°29' W 073°58'0 0.1
2016-Jul-21 14:17N 40°29' W 073°59'0 0.0
2016-Jul-21 13:31N 40°29' W 073°59'0 0.0
2016-Jul-21 12:33N 40°29' W 073°59'0 0.3
2016-Jul-21 11:27N 40°29' W 073°58'0 0.4
2016-Jul-21 10:33N 40°29' W 073°59'0 0.0
2016-Jul-21 09:17N 40°29' W 073°59'0 0.0
2016-Jul-20 22:24N 40°29' W 073°59'0 0.1
2016-Jul-20 21:11N 40°29' W 073°59'0 0.0
2016-Jul-20 20:24N 40°29' W 073°59'0 0.1
2016-Jul-20 16:26N 40°29' W 073°58'0 0.1
2016-Jul-20 13:20N 40°29' W 073°59'0 0.0
2016-Jul-20 12:31N 40°29' W 073°59'1 0.2
2016-Jul-20 09:32N 40°28' W 073°58'0 0.0
2016-Jul-20 08:33N 40°28' W 073°58'0 0.0
2016-Jul-20 07:32N 40°28' W 073°58'0 0.0
2016-Jul-20 00:31N 40°29' W 073°58'0 0.0
2016-Jul-19 23:32N 40°29' W 073°58'0 0.1
2016-Jul-19 22:11N 40°29' W 073°59'0 0.1
2016-Jul-19 20:33N 40°29' W 073°58'0 0.0
2016-Jul-19 12:33N 40°29' W 073°59'0 0.0
2016-Jul-19 11:33N 40°29' W 073°59'0 0.0
2016-Jul-19 10:30N 40°29' W 073°59'0 0.0
2016-Jul-19 08:33N 40°29' W 073°59'0 0.0
2016-Jul-19 00:17N 40°29' W 073°59'0 0.0
2016-Jul-18 23:33N 40°29' W 073°59'0 0.0
2016-Jul-18 22:33N 40°29' W 073°59'0 0.0
2016-Jul-18 21:33N 40°29' W 073°59'2 1.0
2016-Jul-18 19:13N 40°27' W 074°01'3 0.4
2016-Jul-18 13:16N 40°29' W 073°58'0 0.6
2016-Jul-18 12:33N 40°29' W 073°59'0 0.0
2016-Jul-18 04:31N 40°29' W 073°59'0 0.0
2016-Jul-17 22:33N 40°29' W 073°59'0 0.0
2016-Jul-17 09:27N 40°29' W 073°59'0 0.0
2016-Jul-17 07:31N 40°29' W 073°59'0 0.1
2016-Jul-17 06:32N 40°29' W 073°59'0 0.0
2016-Jul-16 23:31N 40°29' W 073°59'0 0.0
2016-Jul-16 22:33N 40°29' W 073°59'2 0.4
2016-Jul-16 17:17N 40°29' W 074°02'0 0.0
2016-Jul-16 16:33N 40°29' W 074°02'2 0.1
2016-Jul-15 18:30N 40°29' W 073°59'0 0.0
2016-Jul-15 16:26N 40°29' W 073°59'0 0.0
2016-Jul-15 09:30N 40°29' W 073°59'0 0.0
2016-Jul-15 07:24N 40°29' W 073°59'0 0.0
2016-Jul-15 06:12N 40°29' W 073°59'0 0.0
2016-Jul-15 05:33N 40°29' W 073°59'0 0.0
2016-Jul-15 04:33N 40°29' W 073°59'0 0.0
2016-Jul-14 23:05N 40°29' W 073°59'0 0.0
2016-Jul-14 18:25N 40°29' W 073°59'0 0.0
2016-Jul-14 17:08N 40°29' W 073°59'0 0.0
2016-Jul-14 16:29N 40°29' W 073°59'0 0.0
2016-Jul-14 15:33N 40°29' W 073°59'  

Dump ship's entire track history